Time;durP1;ratioP1;P1;durP2;ratioP2;P2;SDS_P1;SDS_P2;PMS_P1;PMS_P2;Temp;Humidity;BMP_temperature;BMP_pressure;BME280_temperature;BME280_humidity;BME280_pressure;Samples;Min_cycle;Max_cycle;Signal;HPM_P1;HPM_P2
2022/08/21 00:00:51;;;;;;;5.23;4.30;;;17.60;97.90;;;;;;5052077;28;20450;-76
2022/08/21 00:03:20;;;;;;;6.90;4.33;;;17.60;97.90;;;;;;5036561;28;20431;-76
2022/08/21 00:05:51;;;;;;;6.77;4.60;;;17.50;98.20;;;;;;5034917;28;20422;-76
2022/08/21 00:08:21;;;;;;;6.73;4.10;;;17.50;98.00;;;;;;5036200;28;20475;-76
2022/08/21 00:10:49;;;;;;;6.60;5.17;;;17.40;98.00;;;;;;5035641;28;20431;-76
2022/08/21 00:13:19;;;;;;;4.97;4.47;;;17.40;98.10;;;;;;5035602;28;20471;-76
2022/08/21 00:15:48;;;;;;;5.20;4.37;;;17.40;98.10;;;;;;5035635;28;20439;-76
2022/08/21 00:18:17;;;;;;;7.07;4.10;;;17.40;98.20;;;;;;5035606;28;20542;-77
2022/08/21 00:20:47;;;;;;;5.73;4.87;;;17.40;98.20;;;;;;5036102;28;20434;-76
2022/08/21 00:23:16;;;;;;;5.90;4.47;;;17.30;98.20;;;;;;5034567;28;20530;-77
2022/08/21 00:25:45;;;;;;;7.37;5.00;;;17.30;98.30;;;;;;5035205;28;20447;-76
2022/08/21 00:28:14;;;;;;;8.13;5.87;;;17.30;98.40;;;;;;5034827;28;20469;-77
2022/08/21 00:30:43;;;;;;;5.30;4.40;;;17.30;98.40;;;;;;5035018;28;20870;-76
2022/08/21 00:33:12;;;;;;;7.60;5.23;;;17.20;98.50;;;;;;5050104;28;20517;-76
2022/08/21 00:35:43;;;;;;;6.90;5.17;;;17.20;98.50;;;;;;5035229;28;20435;-76
2022/08/21 00:38:12;;;;;;;6.13;4.63;;;17.20;98.60;;;;;;5034696;28;20440;-77
2022/08/21 00:40:45;;;;;;;8.30;5.47;;;17.10;98.60;;;;;;5034802;28;20434;-76
2022/08/21 00:43:16;;;;;;;5.93;4.90;;;17.10;98.70;;;;;;5034655;28;20823;-75
2022/08/21 00:45:44;;;;;;;4.97;4.47;;;17.10;98.70;;;;;;5034493;28;20518;-76
2022/08/21 00:48:12;;;;;;;5.37;4.57;;;17.10;98.80;;;;;;5033323;28;20877;-75
2022/08/21 00:50:45;;;;;;;7.43;5.90;;;17.00;98.80;;;;;;5034335;28;20519;-76
2022/08/21 00:53:15;;;;;;;8.00;5.20;;;17.00;98.90;;;;;;5035074;28;20405;-77
2022/08/21 00:55:44;;;;;;;5.40;4.87;;;17.00;99.00;;;;;;5034306;28;20416;-77
2022/08/21 00:58:15;;;;;;;7.07;4.83;;;17.00;99.10;;;;;;5034451;28;20466;-76
2022/08/21 01:00:47;;;;;;;5.37;4.87;;;17.00;99.10;;;;;;5034271;28;20896;-76
2022/08/21 01:03:18;;;;;;;7.97;5.30;;;16.90;99.10;;;;;;5034224;28;20428;-76
2022/08/21 01:05:51;;;;;;;5.50;4.50;;;16.90;99.20;;;;;;5034443;28;20472;-76
2022/08/21 01:08:21;;;;;;;7.73;4.30;;;16.80;99.20;;;;;;5034700;28;20481;-77
2022/08/21 01:10:50;;;;;;;6.23;4.67;;;16.80;99.30;;;;;;5049349;28;20478;-77
2022/08/21 01:13:27;;;;;;;6.27;4.60;;;16.80;99.40;;;;;;5034474;28;20456;-77
2022/08/21 01:16:00;;;;;;;5.70;4.53;;;16.80;99.50;;;;;;5033976;28;21000;-77
2022/08/21 01:18:28;;;;;;;4.97;4.10;;;16.80;99.60;;;;;;5034149;28;20511;-76
2022/08/21 01:21:09;;;;;;;5.07;3.70;;;16.70;99.60;;;;;;5033880;28;20460;-77
2022/08/21 01:23:42;;;;;;;5.50;3.90;;;16.70;99.70;;;;;;5049230;28;20496;-76
2022/08/21 01:26:12;;;;;;;7.97;4.00;;;16.70;99.70;;;;;;5034006;28;20398;-76
2022/08/21 01:28:45;;;;;;;5.50;3.97;;;16.70;99.70;;;;;;5033760;28;20904;-77
2022/08/21 01:31:16;;;;;;;5.70;4.60;;;16.60;99.70;;;;;;5033937;28;20422;-76
2022/08/21 01:33:52;;;;;;;6.23;4.30;;;16.60;99.80;;;;;;5033885;28;20536;-76
2022/08/21 01:36:23;;;;;;;5.63;4.13;;;16.60;99.90;;;;;;5048426;28;20462;-76
2022/08/21 01:38:51;;;;;;;5.93;3.97;;;16.60;99.90;;;;;;5032409;28;20447;-77
2022/08/21 01:41:19;;;;;;;6.53;4.17;;;16.50;99.90;;;;;;5034167;28;20431;-77
2022/08/21 01:43:47;;;;;;;4.53;3.70;;;16.50;99.90;;;;;;5033557;28;20414;-77
2022/08/21 01:46:15;;;;;;;5.20;3.90;;;16.50;99.90;;;;;;5033406;28;20761;-77
2022/08/21 01:48:44;;;;;;;4.83;3.73;;;16.50;99.90;;;;;;5033643;28;20857;-77
2022/08/21 01:51:12;;;;;;;3.87;3.47;;;16.50;99.90;;;;;;5032279;28;20422;-76
2022/08/21 01:53:42;;;;;;;4.83;3.47;;;16.40;99.90;;;;;;5033333;28;20872;-77
2022/08/21 01:56:13;;;;;;;6.77;3.73;;;16.40;99.90;;;;;;5033248;28;20413;-76
2022/08/21 01:58:43;;;;;;;5.10;3.23;;;16.40;99.90;;;;;;5033728;28;20437;-76
2022/08/21 02:01:11;;;;;;;6.30;4.03;;;16.40;99.90;;;;;;5048667;28;20493;-77
2022/08/21 02:03:41;;;;;;;5.37;3.33;;;16.40;99.90;;;;;;5032053;28;20524;-77
2022/08/21 02:06:14;;;;;;;4.27;3.37;;;16.30;99.90;;;;;;5048677;28;20440;-76
2022/08/21 02:08:44;;;;;;;4.57;3.70;;;16.30;99.90;;;;;;5031973;28;20917;-77
2022/08/21 02:11:12;;;;;;;8.13;3.90;;;16.30;99.90;;;;;;5033253;28;20439;-76
2022/08/21 02:13:40;;;;;;;4.23;3.50;;;16.30;99.90;;;;;;5032090;28;20424;-76
2022/08/21 02:16:09;;;;;;;4.77;3.67;;;16.30;99.90;;;;;;5048357;28;20446;-76
2022/08/21 02:18:37;;;;;;;5.57;3.40;;;16.30;99.90;;;;;;5033604;28;20448;-76
2022/08/21 02:21:07;;;;;;;4.77;3.10;;;16.20;99.90;;;;;;5048453;28;20997;-75
2022/08/21 02:23:35;;;;;;;5.93;3.20;;;16.20;99.90;;;;;;5033342;28;20410;-77
2022/08/21 02:26:08;;;;;;;5.70;3.50;;;16.20;99.90;;;;;;5032995;28;20402;-77
2022/08/21 02:28:36;;;;;;;5.50;3.30;;;16.20;99.90;;;;;;5033430;28;20406;-76
2022/08/21 02:31:06;;;;;;;8.17;3.10;;;16.10;99.90;;;;;;5032964;28;20533;-77
2022/08/21 02:33:34;;;;;;;5.33;3.87;;;16.10;99.90;;;;;;5031971;28;20430;-76
2022/08/21 02:36:03;;;;;;;6.40;3.53;;;16.10;99.90;;;;;;5031868;28;20450;-77
2022/08/21 02:38:37;;;;;;;5.37;3.43;;;16.10;99.90;;;;;;5032978;28;20463;-77
2022/08/21 02:41:09;;;;;;;5.03;3.40;;;16.00;99.90;;;;;;5031806;28;20429;-76
2022/08/21 02:43:37;;;;;;;5.90;3.67;;;16.00;99.90;;;;;;5031607;28;20473;-76
2022/08/21 02:46:07;;;;;;;3.77;3.37;;;16.00;99.90;;;;;;5033145;28;20421;-76
2022/08/21 02:48:36;;;;;;;6.63;3.40;;;16.00;99.90;;;;;;5035933;28;20484;-77
2022/08/21 02:51:07;;;;;;;6.50;4.37;;;16.00;99.90;;;;;;5036605;28;20419;-77
2022/08/21 02:53:35;;;;;;;4.17;3.67;;;16.00;99.90;;;;;;5036687;28;20914;-76
2022/08/21 02:56:06;;;;;;;4.50;3.20;;;15.90;99.90;;;;;;5036731;28;20814;-76
2022/08/21 02:58:38;;;;;;;4.40;3.80;;;15.90;99.90;;;;;;5036974;28;20447;-76
2022/08/21 03:01:09;;;;;;;6.60;3.50;;;15.90;99.90;;;;;;5036786;28;20429;-75
2022/08/21 03:03:39;;;;;;;5.73;3.50;;;15.90;99.90;;;;;;5036719;28;20390;-77
2022/08/21 03:06:09;;;;;;;7.20;3.60;;;15.90;99.90;;;;;;5036954;28;20782;-78
2022/08/21 03:08:37;;;;;;;6.80;3.37;;;15.90;99.90;;;;;;5035229;28;20468;-77
2022/08/21 03:11:06;;;;;;;4.67;3.70;;;15.90;99.90;;;;;;5036597;28;20453;-76
2022/08/21 03:13:38;;;;;;;6.00;3.70;;;15.90;99.90;;;;;;5035040;28;20421;-76
2022/08/21 03:16:08;;;;;;;4.10;3.53;;;15.90;99.90;;;;;;5036378;28;20477;-76
2022/08/21 03:18:37;;;;;;;4.03;3.63;;;15.90;99.90;;;;;;5051709;28;20414;-77
2022/08/21 03:21:07;;;;;;;5.37;3.30;;;15.90;99.90;;;;;;5036378;28;20422;-77
2022/08/21 03:23:35;;;;;;;5.00;3.50;;;15.80;99.90;;;;;;5036383;28;20915;-78
2022/08/21 03:26:05;;;;;;;5.17;3.73;;;15.80;99.90;;;;;;5034769;28;20423;-76
2022/08/21 03:28:34;;;;;;;4.13;3.10;;;15.80;99.90;;;;;;5036180;28;20405;-76
2022/08/21 03:31:05;;;;;;;4.50;3.30;;;15.80;99.90;;;;;;5036387;28;20994;-77
2022/08/21 03:33:33;;;;;;;6.43;3.87;;;15.80;99.90;;;;;;5035996;28;20406;-77
2022/08/21 03:36:04;;;;;;;4.63;3.20;;;15.80;99.90;;;;;;5051032;28;20854;-77
2022/08/21 03:38:34;;;;;;;7.90;4.20;;;15.70;99.90;;;;;;5036190;28;20480;-76
2022/08/21 03:41:02;;;;;;;5.77;3.53;;;15.70;99.90;;;;;;5036111;28;20448;-76
2022/08/21 03:43:31;;;;;;;6.67;4.13;;;15.70;99.90;;;;;;5035619;28;20428;-76
2022/08/21 03:46:01;;;;;;;5.80;4.10;;;15.70;99.90;;;;;;5035592;28;20424;-76
2022/08/21 03:48:30;;;;;;;5.40;3.63;;;15.70;99.90;;;;;;5035680;28;20436;-77
2022/08/21 03:50:59;;;;;;;5.60;3.80;;;15.70;99.90;;;;;;5050886;28;20520;-76
2022/08/21 03:53:27;;;;;;;6.53;3.50;;;15.70;99.90;;;;;;5034403;28;20538;-76
2022/08/21 03:55:56;;;;;;;5.20;4.00;;;15.70;99.90;;;;;;5035658;28;20573;-76
2022/08/21 03:58:27;;;;;;;4.60;3.50;;;15.70;99.90;;;;;;5035267;28;20520;-76
2022/08/21 04:00:58;;;;;;;5.50;3.80;;;15.70;99.90;;;;;;5034275;28;20445;-76
2022/08/21 04:03:27;;;;;;;5.00;3.93;;;15.70;99.90;;;;;;5035592;28;20489;-77
2022/08/21 04:05:57;;;;;;;6.50;4.03;;;15.70;99.90;;;;;;5035740;28;20427;-76
2022/08/21 04:08:25;;;;;;;5.37;4.03;;;15.70;99.90;;;;;;5038618;28;20533;-77
2022/08/21 04:10:56;;;;;;;7.23;4.27;;;15.70;99.90;;;;;;5052946;28;20446;-77
2022/08/21 04:13:24;;;;;;;6.47;4.73;;;15.70;99.90;;;;;;5035937;28;20447;-76
2022/08/21 04:15:52;;;;;;;5.70;4.83;;;15.70;99.90;;;;;;5034072;28;20442;-77
2022/08/21 04:18:20;;;;;;;5.13;4.50;;;15.70;99.90;;;;;;5035433;28;20539;-76
2022/08/21 04:20:52;;;;;;;5.37;4.77;;;15.70;99.90;;;;;;5035513;28;20911;-76
2022/08/21 04:23:24;;;;;;;6.30;5.00;;;15.70;99.90;;;;;;5035249;28;20459;-76
2022/08/21 04:25:53;;;;;;;5.70;4.87;;;15.70;99.90;;;;;;5035199;28;20401;-76
2022/08/21 04:28:22;;;;;;;7.73;4.80;;;15.70;99.90;;;;;;5051204;28;20815;-76
2022/08/21 04:30:56;;;;;;;6.90;4.87;;;15.60;99.90;;;;;;5050985;28;20951;-76
2022/08/21 04:33:25;;;;;;;5.10;4.60;;;15.70;99.90;;;;;;5050304;28;20433;-77
2022/08/21 04:35:53;;;;;;;5.53;4.50;;;15.60;99.90;;;;;;5033335;28;20467;-76
2022/08/21 04:38:22;;;;;;;5.90;4.90;;;15.60;99.90;;;;;;5034756;28;20465;-76
2022/08/21 04:40:52;;;;;;;6.73;4.60;;;15.60;99.90;;;;;;5034784;28;20536;-77
2022/08/21 04:43:21;;;;;;;5.27;4.77;;;15.60;99.90;;;;;;5034964;28;20903;-76
2022/08/21 04:45:51;;;;;;;9.03;5.17;;;15.60;99.90;;;;;;5033457;28;20454;-76
2022/08/21 04:48:21;;;;;;;6.30;5.10;;;15.50;99.90;;;;;;5035291;28;20532;-76
2022/08/21 04:50:53;;;;;;;5.40;4.47;;;15.50;99.90;;;;;;5035732;28;20394;-76
2022/08/21 04:53:27;;;;;;;6.00;4.70;;;15.60;99.90;;;;;;5034838;28;20404;-76
2022/08/21 04:55:57;;;;;;;5.20;4.70;;;15.50;99.90;;;;;;5050599;28;20471;-77
2022/08/21 04:58:27;;;;;;;6.87;5.23;;;15.50;99.90;;;;;;5034812;28;20968;-76
2022/08/21 05:00:58;;;;;;;5.70;5.20;;;15.60;99.90;;;;;;5050061;28;20533;-76
2022/08/21 05:03:27;;;;;;;7.30;4.93;;;15.60;99.90;;;;;;5049727;28;20485;-77
2022/08/21 05:05:56;;;;;;;5.43;4.93;;;15.50;99.90;;;;;;5049692;28;20460;-77
2022/08/21 05:08:28;;;;;;;9.80;5.40;;;15.60;99.90;;;;;;5034320;28;20965;-77
2022/08/21 05:10:58;;;;;;;7.07;5.33;;;15.60;99.90;;;;;;5032758;28;20413;-77
2022/08/21 05:13:28;;;;;;;7.57;5.93;;;15.50;99.90;;;;;;5035385;28;20398;-78
2022/08/21 05:15:56;;;;;;;6.23;5.10;;;15.60;99.90;;;;;;5050476;28;20930;-77
2022/08/21 05:18:25;;;;;;;12.27;5.67;;;15.60;99.90;;;;;;5034436;28;20549;-79
2022/08/21 05:20:53;;;;;;;8.50;6.70;;;15.60;99.90;;;;;;5049428;28;20418;-77
2022/08/21 05:23:21;;;;;;;9.23;6.10;;;15.60;99.90;;;;;;5033820;28;20432;-77
2022/08/21 05:25:50;;;;;;;5.80;5.20;;;15.60;99.90;;;;;;5032972;28;20456;-77
2022/08/21 05:28:19;;;;;;;6.07;5.47;;;15.60;99.90;;;;;;5033964;28;20451;-77
2022/08/21 05:30:48;;;;;;;7.27;5.27;;;15.60;99.90;;;;;;5033981;28;20479;-76
2022/08/21 05:33:16;;;;;;;6.47;5.73;;;15.60;99.90;;;;;;5032670;28;20425;-76
2022/08/21 05:35:44;;;;;;;6.50;5.70;;;15.70;99.90;;;;;;5033549;28;20413;-75
2022/08/21 05:38:13;;;;;;;8.33;5.80;;;15.70;99.90;;;;;;5034052;28;20440;-76
2022/08/21 05:40:45;;;;;;;6.73;6.03;;;15.70;99.90;;;;;;5049118;28;20513;-76
2022/08/21 05:43:16;;;;;;;8.37;5.97;;;15.70;99.90;;;;;;5034192;28;20459;-76
2022/08/21 05:45:44;;;;;;;7.83;5.50;;;15.70;99.90;;;;;;5033902;28;20878;-77
2022/08/21 05:48:16;;;;;;;7.40;5.97;;;15.70;99.90;;;;;;5033690;28;20425;-76
2022/08/21 05:50:46;;;;;;;7.40;6.20;;;15.80;99.90;;;;;;5048915;28;20455;-76
2022/08/21 05:53:15;;;;;;;6.63;6.03;;;15.80;99.90;;;;;;5032378;28;20862;-77
2022/08/21 05:55:43;;;;;;;13.07;7.03;;;15.80;99.90;;;;;;5033728;28;20474;-76
2022/08/21 05:58:17;;;;;;;7.60;6.83;;;15.90;99.90;;;;;;5033750;28;20425;-76
2022/08/21 06:00:47;;;;;;;7.60;6.73;;;15.90;99.90;;;;;;5034040;28;20423;-77
2022/08/21 06:03:18;;;;;;;8.37;7.47;;;16.00;99.90;;;;;;5033945;28;20421;-77
2022/08/21 06:05:47;;;;;;;8.30;7.60;;;16.10;99.90;;;;;;5034053;28;20462;-76
2022/08/21 06:08:15;;;;;;;8.50;7.47;;;16.20;99.90;;;;;;5048636;28;20445;-77
2022/08/21 06:10:44;;;;;;;9.33;8.40;;;16.40;99.90;;;;;;5033522;28;20465;-77
2022/08/21 06:13:13;;;;;;;8.87;8.00;;;16.60;99.90;;;;;;5033244;28;20443;-76
2022/08/21 06:15:43;;;;;;;8.87;8.07;;;16.90;99.90;;;;;;5032032;28;20433;-76
2022/08/21 06:18:12;;;;;;;9.60;8.60;;;17.10;99.90;;;;;;5033254;28;20557;-76
2022/08/21 06:20:40;;;;;;;13.33;9.30;;;17.40;99.90;;;;;;5048992;28;20436;-77
2022/08/21 06:23:08;;;;;;;10.20;9.20;;;17.60;99.90;;;;;;5037203;28;20447;-77
2022/08/21 06:25:37;;;;;;;9.90;8.40;;;17.90;99.90;;;;;;5037089;28;20445;-76
2022/08/21 06:28:06;;;;;;;14.80;8.77;;;18.20;99.90;;;;;;5052507;28;20887;-76
2022/08/21 06:30:36;;;;;;;11.87;9.13;;;18.40;99.90;;;;;;5037353;28;20944;-77
2022/08/21 06:33:06;;;;;;;13.37;8.30;;;18.70;99.90;;;;;;5037264;28;20870;-77
2022/08/21 06:35:36;;;;;;;8.63;7.83;;;18.90;99.90;;;;;;5037596;28;20473;-77
2022/08/21 06:38:08;;;;;;;10.30;8.23;;;19.20;99.90;;;;;;5037185;28;20478;-76
2022/08/21 06:40:37;;;;;;;8.80;7.63;;;19.40;99.90;;;;;;5036217;28;20800;-77
2022/08/21 06:43:17;;;;;;;12.90;8.17;;;19.70;99.90;;;;;;5037199;28;20497;-76
2022/08/21 06:45:46;;;;;;;8.20;7.40;;;20.00;99.90;;;;;;5037327;28;20518;-78
2022/08/21 06:48:15;;;;;;;8.77;7.17;;;20.20;99.90;;;;;;5037403;28;20473;-78
2022/08/21 06:50:46;;;;;;;10.07;7.13;;;20.40;99.90;;;;;;5037217;28;20446;-76
2022/08/21 06:53:18;;;;;;;8.10;6.90;;;20.60;99.90;;;;;;5037163;28;20462;-77
2022/08/21 06:55:46;;;;;;;9.90;6.63;;;20.90;99.90;;;;;;5037473;28;20901;-77
2022/08/21 06:58:16;;;;;;;7.20;6.47;;;21.10;99.90;;;;;;5037355;28;20562;-76
2022/08/21 07:00:48;;;;;;;9.23;6.87;;;21.30;99.90;;;;;;5037612;28;20501;-78
2022/08/21 07:03:24;;;;;;;9.53;6.40;;;21.50;99.90;;;;;;5037972;28;20840;-77
2022/08/21 07:05:52;;;;;;;11.90;6.70;;;21.70;99.90;;;;;;5053556;28;20438;-77
2022/08/21 07:08:21;;;;;;;9.20;6.17;;;21.90;99.90;;;;;;5037458;28;20455;-77
2022/08/21 07:10:49;;;;;;;10.70;7.40;;;22.10;99.90;;;;;;5036851;28;20447;-77
2022/08/21 07:13:18;;;;;;;11.50;7.97;;;22.30;99.90;;;;;;5053296;28;20486;-77
2022/08/21 07:15:46;;;;;;;9.30;7.27;;;22.50;99.90;;;;;;5053537;28;20439;-78
2022/08/21 07:18:14;;;;;;;8.70;5.67;;;22.70;99.90;;;;;;5037858;28;20481;-76
2022/08/21 07:20:44;;;;;;;9.07;6.23;;;22.90;99.90;;;;;;5037684;28;20477;-77
2022/08/21 07:23:19;;;;;;;8.63;5.90;;;23.00;99.90;;;;;;5037622;28;20438;-77
2022/08/21 07:25:47;;;;;;;6.93;4.87;;;23.20;99.90;;;;;;5038853;28;20473;-79
2022/08/21 07:28:15;;;;;;;9.60;5.20;;;23.30;99.90;;;;;;5037839;28;20447;-77
2022/08/21 07:30:43;;;;;;;7.53;5.00;;;23.40;99.90;;;;;;5037057;28;20455;-78
2022/08/21 07:33:12;;;;;;;9.60;5.50;;;23.50;99.90;;;;;;5037136;28;20439;-79
2022/08/21 07:35:40;;;;;;;8.27;5.00;;;23.60;99.90;;;;;;5037456;28;20809;-79
2022/08/21 07:38:10;;;;;;;7.10;5.30;;;23.70;99.90;;;;;;5037493;28;20956;-77
2022/08/21 07:40:38;;;;;;;8.33;5.30;;;23.70;99.90;;;;;;5052979;28;20478;-77
2022/08/21 07:43:06;;;;;;;5.40;4.23;;;23.70;99.90;;;;;;5053375;28;20905;-77
2022/08/21 07:45:35;;;;;;;5.93;4.03;;;23.80;99.90;;;;;;5038541;28;20475;-78
2022/08/21 07:48:03;;;;;;;6.43;4.10;;;23.80;99.90;;;;;;5053075;28;20458;-77
2022/08/21 07:50:32;;;;;;;6.23;4.20;;;23.90;99.90;;;;;;5035656;28;20485;-77
2022/08/21 07:53:00;;;;;;;6.83;4.70;;;24.00;99.70;;;;;;5037636;28;20438;-77
2022/08/21 07:55:30;;;;;;;6.53;4.10;;;24.00;99.60;;;;;;5037839;28;20435;-78
2022/08/21 07:57:58;;;;;;;5.80;4.10;;;24.10;99.40;;;;;;5055970;28;20481;-81
2022/08/21 08:00:28;;;;;;;4.33;3.43;;;24.10;99.10;;;;;;5042115;28;21011;-79
2022/08/21 08:02:57;;;;;;;5.30;3.83;;;24.20;98.70;;;;;;5041328;28;20451;-79
2022/08/21 08:05:28;;;;;;;7.10;4.40;;;24.20;98.50;;;;;;5055412;28;20513;-80
2022/08/21 08:07:57;;;;;;;3.97;3.13;;;24.20;98.30;;;;;;5038389;28;20462;-81
2022/08/21 08:10:26;;;;;;;5.43;3.40;;;24.20;98.00;;;;;;5055039;28;20859;-79
2022/08/21 08:12:56;;;;;;;6.07;2.93;;;24.20;97.70;;;;;;5038007;28;20434;-79
2022/08/21 08:15:27;;;;;;;4.40;2.67;;;24.30;97.50;;;;;;5054045;28;20478;-80
2022/08/21 08:17:56;;;;;;;3.73;2.57;;;24.30;97.10;;;;;;5038637;28;20471;-81
2022/08/21 08:20:26;;;;;;;7.77;3.00;;;24.30;96.70;;;;;;5040414;28;20487;-81
2022/08/21 08:22:55;;;;;;;4.70;3.27;;;24.30;96.40;;;;;;5039913;28;20459;-80
2022/08/21 08:25:24;;;;;;;5.07;2.70;;;24.30;96.20;;;;;;5036801;28;20960;-77
2022/08/21 08:27:53;;;;;;;7.90;3.13;;;24.30;96.10;;;;;;5036697;28;20489;-77
2022/08/21 08:30:23;;;;;;;4.23;2.50;;;24.30;96.10;;;;;;5035423;28;20794;-76
2022/08/21 08:32:51;;;;;;;6.47;2.73;;;24.30;95.80;;;;;;5034780;28;20436;-77
2022/08/21 08:35:20;;;;;;;5.73;3.20;;;24.40;95.50;;;;;;5051448;28;20439;-77
2022/08/21 08:37:52;;;;;;;7.00;3.17;;;24.30;95.20;;;;;;5036641;28;20915;-78
2022/08/21 08:40:29;;;;;;;5.50;3.00;;;24.30;95.10;;;;;;5051988;28;20979;-76
2022/08/21 08:42:57;;;;;;;7.90;3.67;;;24.30;95.10;;;;;;5033657;28;20501;-76
2022/08/21 08:45:30;;;;;;;7.10;4.10;;;24.30;95.20;;;;;;5035026;28;20466;-76
2022/08/21 08:48:03;;;;;;;6.80;3.97;;;24.20;95.20;;;;;;5050669;28;20498;-77
2022/08/21 08:50:41;;;;;;;6.90;3.67;;;24.20;95.20;;;;;;5035547;28;20434;-77
2022/08/21 08:53:14;;;;;;;7.20;4.23;;;24.20;95.30;;;;;;5035018;28;20525;-76
2022/08/21 08:55:45;;;;;;;5.83;3.90;;;24.20;95.30;;;;;;5035748;28;20469;-77
2022/08/21 08:58:19;;;;;;;9.20;4.30;;;24.20;95.30;;;;;;5035717;28;20565;-76
2022/08/21 09:00:52;;;;;;;9.00;4.50;;;24.30;95.20;;;;;;5035169;28;20442;-76
2022/08/21 09:03:23;;;;;;;10.70;4.20;;;24.30;95.10;;;;;;5036211;28;20427;-77
2022/08/21 09:06:00;;;;;;;5.60;3.47;;;24.30;95.10;;;;;;5033899;28;20457;-77
2022/08/21 09:08:49;;;;;;;6.27;3.83;;;24.30;95.10;;;;;;5035042;28;20471;-77
2022/08/21 09:11:27;;;;;;;6.43;3.53;;;24.50;95.20;;;;;;5033479;28;20880;-76
2022/08/21 09:14:02;;;;;;;5.73;3.30;;;24.60;95.20;;;;;;5035030;28;20786;-76
2022/08/21 09:16:41;;;;;;;5.60;4.37;;;24.60;95.00;;;;;;5049710;28;20467;-76
2022/08/21 09:19:30;;;;;;;8.77;4.90;;;24.60;94.60;;;;;;5034221;28;20458;-76
2022/08/21 09:22:08;;;;;;;7.20;4.67;;;24.50;94.00;;;;;;5034522;28;20443;-76
2022/08/21 09:24:48;;;;;;;7.43;3.97;;;24.40;94.30;;;;;;5034421;28;20504;-76
2022/08/21 09:27:21;;;;;;;7.10;3.67;;;24.40;94.00;;;;;;5034475;28;20451;-77
2022/08/21 09:29:53;;;;;;;6.37;3.73;;;24.40;94.00;;;;;;5036487;28;20489;-77
2022/08/21 09:32:25;;;;;;;7.30;3.37;;;24.40;93.80;;;;;;5034535;28;20502;-77
2022/08/21 09:35:12;;;;;;;7.97;4.30;;;24.30;93.70;;;;;;5034603;28;20429;-77
2022/08/21 09:37:51;;;;;;;6.33;3.77;;;24.10;93.60;;;;;;5049393;28;20851;-76
2022/08/21 09:40:31;;;;;;;7.17;3.73;;;24.00;93.60;;;;;;5035050;28;20419;-76
2022/08/21 09:43:02;;;;;;;7.00;3.70;;;23.90;93.60;;;;;;5035547;28;20423;-76
2022/08/21 09:45:33;;;;;;;6.00;3.57;;;24.00;93.70;;;;;;5036598;28;20423;-76
2022/08/21 09:48:18;;;;;;;6.90;3.40;;;24.00;93.80;;;;;;5034093;28;20466;-76
2022/08/21 09:50:50;;;;;;;9.43;4.30;;;24.10;93.90;;;;;;5050410;28;20451;-75
2022/08/21 09:53:22;;;;;;;6.07;3.87;;;24.20;93.80;;;;;;5034058;28;20443;-76
2022/08/21 09:58:44;;;;;;;7.17;4.20;;;24.30;93.40;;;;;;5034539;28;20459;-75
2022/08/21 10:01:17;;;;;;;4.70;3.00;;;24.30;93.40;;;;;;5034039;28;20430;-75
2022/08/21 10:04:04;;;;;;;9.80;4.57;;;24.30;93.30;;;;;;5032446;28;20501;-74
2022/08/21 10:06:34;;;;;;;6.20;3.37;;;24.20;92.80;;;;;;5033549;28;20463;-75
2022/08/21 10:09:10;;;;;;;4.33;3.67;;;24.10;92.90;;;;;;5049226;28;20855;-76
2022/08/21 10:11:53;;;;;;;5.97;3.20;;;24.00;93.00;;;;;;5048596;28;20909;-75
2022/08/21 10:14:36;;;;;;;7.13;2.80;;;24.10;93.00;;;;;;5033195;28;20430;-76
2022/08/21 10:17:18;;;;;;;6.67;3.70;;;24.20;92.90;;;;;;5048672;28;20467;-76
2022/08/21 10:19:54;;;;;;;4.80;3.30;;;24.30;92.90;;;;;;5033532;28;20972;-75
2022/08/21 10:22:34;;;;;;;5.30;3.60;;;24.30;92.70;;;;;;5033218;28;20541;-76
2022/08/21 10:25:11;;;;;;;6.50;3.90;;;24.40;92.70;;;;;;5032015;28;20455;-76
2022/08/21 10:27:48;;;;;;;6.50;3.30;;;24.50;92.70;;;;;;5034021;28;21039;-76
2022/08/21 10:30:21;;;;;;;4.20;2.70;;;24.50;92.90;;;;;;5034000;28;20505;-76
2022/08/21 10:33:08;;;;;;;3.50;2.93;;;24.60;92.50;;;;;;5032735;28;20867;-74
2022/08/21 10:35:45;;;;;;;7.73;3.30;;;24.60;92.30;;;;;;5050073;28;20435;-76
2022/08/21 10:38:50;;;;;;;5.13;2.90;;;24.70;92.30;;;;;;5033300;28;20454;-75
2022/08/21 10:41:58;;;;;;;5.57;3.10;;;24.70;92.20;;;;;;5033687;28;20457;-76
2022/08/21 10:44:34;;;;;;;5.10;3.30;;;24.70;92.30;;;;;;5033843;28;20470;-75
2022/08/21 10:47:07;;;;;;;5.70;2.97;;;24.80;92.30;;;;;;5033168;28;20450;-76
2022/08/21 10:49:47;;;;;;;4.80;2.93;;;24.80;92.00;;;;;;5033329;28;20427;-76
2022/08/21 10:52:43;;;;;;;3.60;2.47;;;24.80;91.80;;;;;;5048497;28;20454;-75
2022/08/21 10:55:16;;;;;;;5.90;3.00;;;24.80;91.70;;;;;;5033545;28;20442;-75
2022/08/21 10:57:50;;;;;;;7.10;3.20;;;24.80;91.50;;;;;;5033001;28;20998;-75
2022/08/21 11:00:22;;;;;;;4.97;3.10;;;24.80;91.60;;;;;;5031512;28;20467;-76
2022/08/21 11:02:56;;;;;;;3.43;2.63;;;24.80;91.60;;;;;;5048189;28;20443;-75
2022/08/21 11:05:30;;;;;;;6.53;3.10;;;24.90;91.70;;;;;;5033166;28;20425;-75
2022/08/21 11:08:06;;;;;;;4.13;2.47;;;24.90;91.50;;;;;;5033344;28;20462;-76
2022/08/21 11:10:41;;;;;;;6.93;3.07;;;24.90;91.30;;;;;;5036899;28;20502;-75
2022/08/21 11:13:36;;;;;;;5.37;2.80;;;25.00;91.40;;;;;;5036091;28;20435;-77
2022/08/21 11:16:11;;;;;;;5.57;3.00;;;25.10;91.50;;;;;;5036566;28;20446;-76
2022/08/21 11:18:44;;;;;;;5.53;2.80;;;25.20;91.50;;;;;;5036416;28;20426;-75
2022/08/21 11:21:29;;;;;;;3.20;2.60;;;25.30;91.50;;;;;;5036890;28;20423;-75
2022/08/21 11:24:06;;;;;;;5.17;2.93;;;25.30;91.20;;;;;;5036805;28;20454;-75
2022/08/21 11:26:44;;;;;;;5.17;2.97;;;25.30;90.90;;;;;;5036478;28;20454;-75
2022/08/21 11:29:18;;;;;;;6.47;3.83;;;25.30;90.80;;;;;;5036280;28;20446;-76
2022/08/21 11:32:00;;;;;;;8.93;3.10;;;25.30;90.80;;;;;;5036601;28;20506;-76
2022/08/21 11:34:43;;;;;;;5.30;4.00;;;25.40;90.90;;;;;;5049335;28;20447;-76
2022/08/21 11:37:21;;;;;;;4.03;2.30;;;25.50;90.80;;;;;;5036246;28;20551;-77
2022/08/21 11:40:01;;;;;;;4.30;2.53;;;25.50;90.30;;;;;;5036201;28;20485;-76
2022/08/21 11:42:39;;;;;;;3.80;2.10;;;25.50;90.00;;;;;;5035008;28;20921;-76
2022/08/21 11:45:19;;;;;;;4.30;2.90;;;25.40;89.90;;;;;;5036154;28;20426;-77
2022/08/21 11:47:59;;;;;;;13.70;12.40;;;25.40;90.00;;;;;;5036465;28;20455;-76
2022/08/21 11:50:30;;;;;;;4.87;2.73;;;25.50;90.00;;;;;;5036626;28;20526;-77
2022/08/21 11:53:10;;;;;;;5.60;2.57;;;25.50;89.70;;;;;;5034743;28;20442;-76
2022/08/21 11:55:56;;;;;;;5.77;3.10;;;25.60;89.50;;;;;;5034835;28;20512;-77
2022/08/21 11:58:28;;;;;;;5.70;3.20;;;25.60;89.50;;;;;;5036528;28;20532;-76
2022/08/21 12:00:59;;;;;;;5.10;2.50;;;25.70;89.40;;;;;;5052626;28;20831;-77
2022/08/21 12:03:30;;;;;;;4.67;2.73;;;25.70;89.50;;;;;;5038176;28;20439;-78
2022/08/21 12:06:00;;;;;;;4.33;2.57;;;25.80;89.40;;;;;;5052759;28;20436;-77
2022/08/21 12:08:32;;;;;;;6.10;2.53;;;25.80;89.30;;;;;;5037116;28;20960;-77
2022/08/21 12:11:05;;;;;;;6.90;2.67;;;25.90;89.40;;;;;;5052700;28;20474;-77
2022/08/21 12:13:37;;;;;;;3.50;2.33;;;25.80;89.40;;;;;;5037724;28;20429;-78
2022/08/21 12:16:14;;;;;;;4.50;3.37;;;25.80;89.60;;;;;;5037932;28;20896;-78
2022/08/21 12:18:43;;;;;;;5.30;3.60;;;25.90;89.70;;;;;;5051148;28;20439;-77
2022/08/21 12:21:22;;;;;;;5.70;2.70;;;25.90;89.80;;;;;;5034581;28;20823;-77
2022/08/21 12:24:03;;;;;;;9.40;3.00;;;26.00;89.60;;;;;;5032620;28;21043;-76
2022/08/21 12:26:36;;;;;;;5.37;2.57;;;26.00;89.40;;;;;;5034576;28;20466;-77
2022/08/21 12:29:14;;;;;;;6.70;2.40;;;26.00;89.30;;;;;;5035685;28;20443;-77
2022/08/21 12:31:56;;;;;;;4.80;2.53;;;26.10;89.40;;;;;;5035642;28;20462;-77
2022/08/21 12:34:31;;;;;;;4.47;2.70;;;26.10;89.00;;;;;;5034084;28;20431;-77
2022/08/21 12:37:03;;;;;;;4.40;2.50;;;26.10;88.80;;;;;;5035060;28;21022;-76
2022/08/21 12:39:33;;;;;;;4.43;2.40;;;26.10;88.90;;;;;;5035021;28;20491;-77
2022/08/21 12:42:13;;;;;;;4.13;2.37;;;26.10;88.80;;;;;;5035079;28;20937;-76
2022/08/21 12:44:45;;;;;;;3.60;2.50;;;26.10;88.60;;;;;;5035231;28;20439;-76
2022/08/21 12:47:18;;;;;;;4.93;2.27;;;26.10;88.40;;;;;;5050002;28;20459;-77
2022/08/21 12:49:55;;;;;;;5.17;2.70;;;26.10;88.20;;;;;;5034920;28;20419;-77
2022/08/21 12:52:28;;;;;;;5.40;2.73;;;26.10;89.00;;;;;;5033573;28;20534;-77
2022/08/21 12:54:56;;;;;;;4.57;2.70;;;26.20;88.00;;;;;;5033378;28;20443;-77
2022/08/21 12:57:29;;;;;;;5.13;3.40;;;26.10;87.50;;;;;;5034680;28;20451;-77
2022/08/21 13:00:00;;;;;;;9.87;2.90;;;26.10;87.60;;;;;;5033339;28;20466;-76
2022/08/21 13:02:31;;;;;;;7.03;2.97;;;26.10;87.30;;;;;;5033329;28;20952;-76
2022/08/21 13:05:04;;;;;;;4.73;2.67;;;26.10;87.30;;;;;;5050043;28;20447;-76
2022/08/21 13:07:35;;;;;;;4.90;2.77;;;26.20;87.80;;;;;;5035307;28;20566;-77
2022/08/21 13:10:15;;;;;;;5.63;2.80;;;26.30;87.40;;;;;;5049984;28;20482;-75
2022/08/21 13:12:45;;;;;;;3.80;2.90;;;26.40;86.90;;;;;;5035425;28;20509;-77